createdAt,value
2022-08-05T00:02:33.797Z,21.28
2022-08-05T00:06:06.633Z,21.14
2022-08-05T00:09:01.472Z,21.13
2022-08-05T00:12:04.399Z,21.21
2022-08-05T00:15:54.141Z,21.34
2022-08-05T00:18:32.079Z,21.15
2022-08-05T00:21:35.871Z,21.22
2022-08-05T00:24:42.582Z,21.17
2022-08-05T00:27:45.370Z,21.25
2022-08-05T00:30:52.128Z,20.95
2022-08-05T00:34:54.486Z,20.94
2022-08-05T00:37:18.918Z,21.00
2022-08-05T00:40:29.252Z,20.97
2022-08-05T00:43:47.414Z,20.73
2022-08-05T00:46:54.153Z,20.95
2022-08-05T00:50:05.153Z,20.90
2022-08-05T00:53:16.040Z,20.73
2022-08-05T00:56:32.064Z,20.68
2022-08-05T00:59:44.237Z,20.79
2022-08-05T01:02:47.358Z,20.47
2022-08-05T01:05:54.749Z,20.59
2022-08-05T01:08:57.612Z,20.55
2022-08-05T01:12:18.052Z,20.42
2022-08-05T01:15:35.676Z,20.62
2022-08-05T01:18:43.377Z,20.22
2022-08-05T01:22:23.977Z,20.40
2022-08-05T01:25:54.490Z,20.33
2022-08-05T01:29:05.008Z,20.18
2022-08-05T01:32:18.435Z,20.21
2022-08-05T01:35:50.757Z,20.39
2022-08-05T01:38:51.333Z,20.45
2022-08-05T01:41:55.285Z,20.48
2022-08-05T01:45:03.213Z,20.40
2022-08-05T01:48:10.228Z,20.29
2022-08-05T01:51:15.622Z,20.14
2022-08-05T01:54:25.624Z,20.14
2022-08-05T01:58:29.791Z,20.00
2022-08-05T02:01:00.149Z,20.09
2022-08-05T02:04:04.393Z,19.58
2022-08-05T02:07:07.246Z,19.96
2022-08-05T02:10:17.257Z,20.11
2022-08-05T02:13:27.745Z,20.09
2022-08-05T02:16:46.737Z,19.97
2022-08-05T02:20:01.500Z,20.15
2022-08-05T02:23:10.022Z,20.27
2022-08-05T02:26:20.109Z,20.17
2022-08-05T02:29:59.496Z,20.07
2022-08-05T02:32:55.227Z,20.09
2022-08-05T02:36:01.469Z,20.08
2022-08-05T02:39:08.761Z,19.95
2022-08-05T02:42:12.400Z,20.15
2022-08-05T02:45:52.294Z,20.13
2022-08-05T02:48:58.464Z,19.92
2022-08-05T02:52:04.730Z,19.68
2022-08-05T02:55:10.957Z,19.47
2022-08-05T02:58:16.854Z,19.53
2022-08-05T03:01:27.023Z,19.43
2022-08-05T03:04:33.718Z,19.56
2022-08-05T03:08:00.486Z,19.44
2022-08-05T03:11:41.190Z,19.27
2022-08-05T03:14:22.999Z,19.00
2022-08-05T03:17:25.930Z,19.13
2022-08-05T03:20:31.101Z,19.07
2022-08-05T03:23:34.812Z,19.09
2022-08-05T03:26:37.915Z,19.09
2022-08-05T03:29:45.596Z,18.98
2022-08-05T03:33:05.797Z,19.04
2022-08-05T03:36:12.119Z,19.05
2022-08-05T03:39:26.755Z,19.12
2022-08-05T03:42:32.486Z,19.17
2022-08-05T03:45:58.037Z,19.15
2022-08-05T03:48:59.148Z,19.22
2022-08-05T03:52:39.070Z,19.16
2022-08-05T03:56:05.556Z,19.20
2022-08-05T03:59:03.170Z,19.14
2022-08-05T04:02:13.397Z,19.12
2022-08-05T04:05:20.859Z,19.06
2022-08-05T04:08:36.765Z,19.07
2022-08-05T04:11:50.757Z,18.94
2022-08-05T04:14:57.610Z,18.98
2022-08-05T04:18:02.883Z,19.00
2022-08-05T04:21:06.699Z,19.08
2022-08-05T04:24:19.195Z,19.02
2022-08-05T04:27:33.052Z,18.80
2022-08-05T04:30:44.569Z,18.94
2022-08-05T04:34:17.483Z,18.88
2022-08-05T04:37:10.273Z,19.02
2022-08-05T04:40:14.985Z,18.95
2022-08-05T04:43:22.354Z,18.95
2022-08-05T04:46:27.774Z,18.85
2022-08-05T04:49:39.105Z,18.94
2022-08-05T04:52:53.789Z,18.97
2022-08-05T04:56:14.403Z,18.92
2022-08-05T04:59:21.655Z,18.89
2022-08-05T05:02:43.266Z,18.88
2022-08-05T05:06:39.941Z,18.95
2022-08-05T05:09:09.847Z,18.88
2022-08-05T05:12:18.089Z,19.15
2022-08-05T05:15:57.003Z,19.15
2022-08-05T05:19:08.996Z,19.16
2022-08-05T05:22:24.396Z,19.11
2022-08-05T05:25:32.647Z,19.02
2022-08-05T05:28:45.012Z,19.13
2022-08-05T05:31:47.940Z,18.91
2022-08-05T05:34:52.319Z,19.14
2022-08-05T05:38:00.068Z,19.34
2022-08-05T05:41:04.014Z,19.37
2022-08-05T05:44:36.033Z,19.38
2022-08-05T05:48:07.197Z,19.33
2022-08-05T05:50:58.358Z,19.48
2022-08-05T05:54:00.938Z,19.27
2022-08-05T05:57:03.550Z,19.21
2022-08-05T06:00:19.982Z,19.24
2022-08-05T06:03:28.335Z,19.30
2022-08-05T06:06:47.774Z,19.41
2022-08-05T06:10:01.705Z,19.36
2022-08-05T06:13:07.227Z,19.35
2022-08-05T06:16:30.123Z,19.28
2022-08-05T06:19:35.671Z,19.35
2022-08-05T06:22:40.559Z,19.42
2022-08-05T06:26:12.281Z,19.33
2022-08-05T06:29:45.440Z,19.39
2022-08-05T06:32:31.734Z,19.51
2022-08-05T06:36:08.008Z,19.51
2022-08-05T06:38:56.986Z,19.30
2022-08-05T06:42:01.308Z,19.35
2022-08-05T06:45:08.492Z,19.35
2022-08-05T06:48:53.799Z,19.37
2022-08-05T06:51:35.622Z,19.51
2022-08-05T06:54:43.338Z,19.53
2022-08-05T06:58:03.259Z,19.52
2022-08-05T07:01:13.889Z,19.47
2022-08-05T07:04:24.836Z,19.59
2022-08-05T07:07:43.051Z,19.48
2022-08-05T07:10:53.496Z,19.64
2022-08-05T07:14:15.783Z,19.79
2022-08-05T07:18:07.459Z,19.89
2022-08-05T07:20:46.873Z,19.83
2022-08-05T07:23:52.180Z,19.82
2022-08-05T07:26:55.125Z,19.85
2022-08-05T07:30:23.851Z,19.79
2022-08-05T07:33:21.458Z,19.87
2022-08-05T07:36:41.387Z,19.80
2022-08-05T07:40:04.088Z,19.75
2022-08-05T07:43:20.336Z,19.77
2022-08-05T07:46:25.086Z,19.75
2022-08-05T07:49:28.706Z,19.67
2022-08-05T07:52:32.690Z,19.54
2022-08-05T07:56:04.835Z,19.59
2022-08-05T07:58:59.203Z,19.66
2022-08-05T08:02:03.230Z,19.63
2022-08-05T08:05:06.932Z,19.58
2022-08-05T08:08:12.188Z,19.62
2022-08-05T08:11:16.050Z,19.66
2022-08-05T08:14:19.155Z,19.80
2022-08-05T08:17:22.086Z,19.67
2022-08-05T08:21:00.567Z,19.74
2022-08-05T08:24:03.940Z,19.82
2022-08-05T08:27:07.995Z,19.83
2022-08-05T08:30:28.520Z,19.87
2022-08-05T08:33:36.014Z,19.94
2022-08-05T08:36:46.360Z,19.72
2022-08-05T08:39:56.638Z,19.82
2022-08-05T08:45:19.963Z,19.50
2022-08-05T08:46:24.978Z,19.70
2022-08-05T08:50:05.964Z,19.75
2022-08-05T08:52:55.867Z,19.88
2022-08-05T08:56:02.976Z,19.87
2022-08-05T08:59:19.267Z,19.92
2022-08-05T09:02:26.654Z,19.89
2022-08-05T09:05:38.297Z,20.04
2022-08-05T09:08:41.731Z,20.02
2022-08-05T09:11:50.910Z,19.97
2022-08-05T09:14:59.573Z,20.01
2022-08-05T09:18:09.326Z,20.15
2022-08-05T09:21:21.202Z,20.13
2022-08-05T09:24:34.643Z,20.09
2022-08-05T09:28:05.175Z,19.83
2022-08-05T09:31:22.481Z,19.60
2022-08-05T09:34:47.362Z,19.84
2022-08-05T09:38:12.174Z,19.96
2022-08-05T09:41:16.209Z,19.94
2022-08-05T09:44:34.359Z,20.07
2022-08-05T09:47:55.527Z,20.13
2022-08-05T09:51:00.443Z,20.13
2022-08-05T09:54:05.203Z,20.24
2022-08-05T09:57:20.663Z,20.14
2022-08-05T10:00:30.454Z,20.09
2022-08-05T10:03:56.786Z,20.15
2022-08-05T10:06:59.285Z,19.98
2022-08-05T10:10:14.228Z,20.11
2022-08-05T10:13:31.549Z,19.97
2022-08-05T10:16:52.736Z,19.62
2022-08-05T10:20:03.738Z,19.84
2022-08-05T10:23:34.253Z,19.90
2022-08-05T10:26:51.415Z,19.75
2022-08-05T10:30:41.842Z,19.84
2022-08-05T10:33:19.208Z,19.89
2022-08-05T10:36:23.767Z,19.76
2022-08-05T10:40:03.729Z,19.84
2022-08-05T10:43:02.236Z,19.88
2022-08-05T10:46:09.545Z,20.13
2022-08-05T10:49:16.349Z,20.03
2022-08-05T10:52:49.528Z,20.11
2022-08-05T10:56:14.670Z,20.08
2022-08-05T11:00:02.042Z,19.58
2022-08-05T11:03:25.859Z,19.90
2022-08-05T11:06:31.383Z,19.77
2022-08-05T11:09:46.721Z,19.56
2022-08-05T11:12:50.817Z,19.81
2022-08-05T11:16:47.750Z,19.78
2022-08-05T11:20:16.849Z,19.89
2022-08-05T11:24:05.287Z,19.84
2022-08-05T11:27:28.799Z,19.78
2022-08-05T11:31:58.825Z,19.70
2022-08-05T11:34:47.564Z,19.68
2022-08-05T11:38:26.206Z,19.61
2022-08-05T11:41:56.287Z,19.62
2022-08-05T11:44:53.803Z,19.40
2022-08-05T11:47:58.688Z,19.40
2022-08-05T11:51:02.629Z,19.53
2022-08-05T11:54:06.693Z,19.42
2022-08-05T11:57:24.511Z,19.28
2022-08-05T12:00:29.223Z,19.26
2022-08-05T12:03:43.229Z,19.33
2022-08-05T12:07:01.142Z,19.23
2022-08-05T12:10:09.532Z,19.18
2022-08-05T12:13:47.658Z,19.25
2022-08-05T12:16:45.291Z,19.33
2022-08-05T12:20:27.152Z,19.24
2022-08-05T12:23:14.015Z,19.17
2022-08-05T12:26:17.039Z,19.15
2022-08-05T12:29:23.802Z,19.14
2022-08-05T12:32:26.506Z,19.39
2022-08-05T12:35:36.886Z,19.54
2022-08-05T12:38:42.716Z,19.47
2022-08-05T12:41:46.873Z,19.63
2022-08-05T12:44:52.568Z,19.92
2022-08-05T12:48:17.611Z,20.17
2022-08-05T12:52:10.178Z,19.94
2022-08-05T12:54:42.049Z,20.18
2022-08-05T12:58:38.872Z,20.17
2022-08-05T13:02:01.734Z,20.14
2022-08-05T13:04:33.549Z,20.24
2022-08-05T13:08:02.036Z,20.57
2022-08-05T13:11:04.970Z,20.66
2022-08-05T13:14:19.375Z,20.83
2022-08-05T13:17:31.957Z,20.81
2022-08-05T13:20:44.233Z,20.42
2022-08-05T13:23:50.765Z,20.50
2022-08-05T13:26:55.080Z,20.55
2022-08-05T13:30:32.559Z,20.65
2022-08-05T13:34:22.573Z,20.89
2022-08-05T13:36:44.949Z,21.02
2022-08-05T13:40:16.107Z,21.33
2022-08-05T13:43:12.217Z,21.67
2022-08-05T13:46:16.296Z,22.04
2022-08-05T13:49:35.284Z,21.84
2022-08-05T13:52:38.034Z,21.76
2022-08-05T13:55:41.773Z,21.48
2022-08-05T13:58:53.276Z,21.49
2022-08-05T14:01:58.782Z,21.48
2022-08-05T14:05:15.372Z,21.73
2022-08-05T14:08:27.855Z,21.76
2022-08-05T14:11:31.388Z,21.62
2022-08-05T14:14:34.037Z,21.47
2022-08-05T14:17:37.701Z,21.66
2022-08-05T14:20:41.664Z,21.40
2022-08-05T14:23:50.013Z,21.54
2022-08-05T14:27:15.679Z,21.81
2022-08-05T14:30:20.363Z,21.96
2022-08-05T14:33:24.353Z,22.05
2022-08-05T14:36:28.420Z,21.93
2022-08-05T14:39:49.441Z,22.11
2022-08-05T14:42:55.538Z,22.02
2022-08-05T14:45:58.516Z,21.92
2022-08-05T14:49:06.467Z,21.80
2022-08-05T14:52:12.285Z,21.63
2022-08-05T14:55:24.695Z,21.48
2022-08-05T14:58:27.295Z,21.41
2022-08-05T15:01:49.163Z,21.45
2022-08-05T15:04:52.737Z,21.28
2022-08-05T15:08:13.201Z,21.29
2022-08-05T15:11:19.258Z,21.27
2022-08-05T15:14:35.659Z,21.14
2022-08-05T15:17:51.296Z,21.15
2022-08-05T15:20:54.678Z,21.20
2022-08-05T15:23:58.638Z,21.33
2022-08-05T15:27:01.233Z,21.40
2022-08-05T15:30:07.342Z,21.39
2022-08-05T15:33:09.924Z,21.48
2022-08-05T15:36:16.976Z,21.32
2022-08-05T15:41:00.646Z,21.37
2022-08-05T15:42:56.752Z,21.42
2022-08-05T15:46:01.239Z,21.22
2022-08-05T15:49:10.067Z,21.48
2022-08-05T15:52:29.474Z,21.26
2022-08-05T15:56:02.026Z,21.11
2022-08-05T15:59:00.532Z,20.74
2022-08-05T16:02:03.185Z,20.73
2022-08-05T16:05:12.824Z,20.35
2022-08-05T16:08:16.049Z,20.12
2022-08-05T16:11:20.912Z,20.16
2022-08-05T16:14:24.190Z,20.14
2022-08-05T16:17:26.777Z,20.26
2022-08-05T16:20:31.561Z,20.44
2022-08-05T16:23:54.131Z,20.29
2022-08-05T16:27:01.489Z,19.98
2022-08-05T16:30:05.595Z,19.90
2022-08-05T16:33:08.305Z,20.07
2022-08-05T16:36:11.343Z,20.32
2022-08-05T16:39:15.603Z,20.15
2022-08-05T16:42:27.375Z,20.09
2022-08-05T16:46:06.295Z,20.04
2022-08-05T16:48:53.532Z,19.82
2022-08-05T16:51:58.484Z,19.67
2022-08-05T16:55:01.604Z,19.57
2022-08-05T16:58:08.811Z,19.58
2022-08-05T17:01:12.756Z,19.47
2022-08-05T17:04:15.379Z,19.76
2022-08-05T17:07:43.532Z,19.73
2022-08-05T17:10:40.529Z,19.42
2022-08-05T17:13:44.718Z,19.43
2022-08-05T17:16:47.851Z,19.38
2022-08-05T17:19:56.678Z,19.45
2022-08-05T17:22:59.312Z,19.53
2022-08-05T17:26:02.545Z,19.54
2022-08-05T17:29:07.474Z,19.39
2022-08-05T17:32:16.725Z,19.35
2022-08-05T17:35:21.013Z,19.20
2022-08-05T17:38:23.750Z,19.12
2022-08-05T17:42:17.631Z,19.08
2022-08-05T17:44:51.408Z,19.03
2022-08-05T17:47:56.236Z,19.01
2022-08-05T17:50:59.002Z,19.09
2022-08-05T17:54:03.975Z,18.85
2022-08-05T17:57:07.078Z,19.07
2022-08-05T18:00:16.938Z,18.95
2022-08-05T18:06:42.927Z,18.52
2022-08-05T18:09:58.951Z,18.50
2022-08-05T18:13:07.618Z,18.70
2022-08-05T18:16:20.247Z,18.82
2022-08-05T18:19:26.054Z,18.63
2022-08-05T18:22:46.165Z,18.54
2022-08-05T18:25:57.463Z,18.38
2022-08-05T18:29:01.003Z,18.01
2022-08-05T18:32:06.501Z,17.75
2022-08-05T18:35:16.840Z,17.63
2022-08-05T18:38:26.380Z,17.68
2022-08-05T18:41:55.980Z,17.78
2022-08-05T18:44:56.474Z,17.70
2022-08-05T18:48:00.613Z,17.47
2022-08-05T18:52:04.583Z,17.42
2022-08-05T18:54:45.947Z,17.80
2022-08-05T18:57:53.126Z,17.44
2022-08-05T19:00:56.454Z,17.68
2022-08-05T19:04:00.471Z,17.79
2022-08-05T19:07:03.055Z,17.80
2022-08-05T19:10:11.111Z,17.81
2022-08-05T19:13:16.050Z,17.88
2022-08-05T19:16:25.173Z,17.84
2022-08-05T19:19:33.228Z,17.77
2022-08-05T19:22:36.701Z,17.63
2022-08-05T19:25:43.719Z,17.76
2022-08-05T19:28:47.040Z,17.54
2022-08-05T19:31:51.005Z,17.63
2022-08-05T19:34:55.882Z,17.74
2022-08-05T19:38:06.140Z,17.64
2022-08-05T19:41:10.107Z,17.35
2022-08-05T19:44:13.729Z,17.41
2022-08-05T19:47:17.209Z,17.28
2022-08-05T19:50:21.154Z,17.54
2022-08-05T19:54:04.042Z,17.58
2022-08-05T19:56:48.779Z,17.45
2022-08-05T19:59:59.370Z,17.53
2022-08-05T20:03:08.998Z,17.47
2022-08-05T20:06:15.855Z,17.41
2022-08-05T20:09:53.806Z,17.32
2022-08-05T20:12:55.003Z,17.46
2022-08-05T20:15:58.113Z,17.49
2022-08-05T20:19:02.289Z,17.34
2022-08-05T20:22:06.566Z,17.24
2022-08-05T20:25:12.420Z,17.16
2022-08-05T20:28:15.044Z,17.20
2022-08-05T20:31:21.593Z,17.17
2022-08-05T20:34:31.040Z,17.11
2022-08-05T20:38:06.227Z,17.15
2022-08-05T20:40:57.821Z,16.97
2022-08-05T20:44:16.917Z,16.98
2022-08-05T20:47:20.942Z,17.06
2022-08-05T20:50:36.251Z,16.89
2022-08-05T20:53:42.663Z,16.92
2022-08-05T20:56:59.222Z,16.83
2022-08-05T21:00:20.914Z,16.77
2022-08-05T21:03:24.446Z,16.85
2022-08-05T21:06:29.625Z,16.79
2022-08-05T21:09:33.815Z,16.69
2022-08-05T21:12:39.759Z,16.70
2022-08-05T21:16:01.083Z,16.69
2022-08-05T21:19:04.794Z,16.61
2022-08-05T21:22:09.539Z,16.62
2022-08-05T21:25:15.800Z,16.65
2022-08-05T21:28:23.675Z,16.60
2022-08-05T21:31:26.698Z,16.62
2022-08-05T21:34:43.574Z,16.59
2022-08-05T21:37:58.962Z,16.63
2022-08-05T21:41:02.953Z,16.55
2022-08-05T21:44:06.941Z,16.56
2022-08-05T21:47:32.785Z,16.51
2022-08-05T21:50:32.120Z,16.52
2022-08-05T21:53:34.802Z,16.41
2022-08-05T21:56:44.586Z,16.30
2022-08-05T22:00:04.859Z,16.36
2022-08-05T22:03:14.369Z,16.27
2022-08-05T22:06:22.190Z,16.30
2022-08-05T22:09:46.185Z,16.21
2022-08-05T22:12:50.678Z,16.20
2022-08-05T22:16:01.747Z,16.29
2022-08-05T22:19:57.064Z,16.34
2022-08-05T22:22:28.880Z,16.26
2022-08-05T22:26:09.702Z,16.22
2022-08-05T22:29:17.202Z,16.29
2022-08-05T22:32:21.380Z,16.24
2022-08-05T22:35:25.869Z,16.18
2022-08-05T22:38:33.791Z,16.19
2022-08-05T22:42:11.631Z,16.03
2022-08-05T22:45:03.672Z,16.00
2022-08-05T22:48:06.901Z,15.96
2022-08-05T22:51:15.976Z,16.07
2022-08-05T22:54:26.026Z,16.05
2022-08-05T22:57:36.227Z,15.98
2022-08-05T23:00:40.677Z,15.96
2022-08-05T23:03:58.100Z,15.95
2022-08-05T23:07:02.541Z,15.97
2022-08-05T23:10:06.613Z,15.92
2022-08-05T23:13:10.479Z,15.97
2022-08-05T23:16:14.452Z,15.97
2022-08-05T23:19:28.922Z,15.88
2022-08-05T23:22:41.053Z,15.89
2022-08-05T23:25:51.131Z,15.81
2022-08-05T23:28:57.718Z,15.74
2022-08-05T23:32:02.655Z,15.75
2022-08-05T23:35:07.097Z,15.72
2022-08-05T23:38:12.071Z,15.71
2022-08-05T23:41:14.796Z,15.64
2022-08-05T23:44:17.465Z,15.75
2022-08-05T23:47:25.003Z,15.64
2022-08-05T23:50:28.098Z,15.68
2022-08-05T23:53:46.911Z,15.53
2022-08-05T23:56:49.661Z,15.55
